< < Back
Terminal Aerodrome Forecast


Current Version              Previous Versions:   1  2  3  4  5  6  7  8  9  

Terminal Aerodrome Forecast

283
FTUS42 KCHS 231500 AAB
TAFSAV
TAF AMD
KSAV 231540Z 2316/2412 11014KT 4SM RA BR SCT003 BKN005
     FM231700 14013KT 6SM -RA BR SCT003 BKN005
     FM232000 17013G22KT P6SM VCSH SCT005 BKN008
     FM240100 19012G20KT 4SM -TSRA BR BKN020CB
     FM240400 20008KT 3SM BR BKN006=

Latest METAR

804
SAUS80 KWBC 231600 RRB
MTRSAV
METAR KSAV 231553Z 10009KT 1SM R10/P6000FT RA BR SCT003 BKN005 OVC008
18/17 A3004 RMK AO2 SLP172 P0012 T01830167


USA.gov is the U.S. government's official web portal to all federal, state and local government web resources and services.